MHTG/TGU METAR and TAF weather

Enter ICAO airport designator
Station Type Date Time Source
MHTG METAR 2019/10/15 19:00 UTC NOAA

MHTG 151900Z 18010KT 9999 BKN028 BKN070 23/17 Q1020 A3012 NOSIG


Station Type Date Time Source
MHTG Decoded METAR 2019/10/15 19:00 UTC NOAA

Tegucigalpa, Honduras (MHTG) 14-03N 087-13W 1007M
Oct 15, 2019 - 03:00 PM EDT / 2019.10.15 1900 UTC
Wind: from the S (180 degrees) at 12 MPH (10 KT):0
Visibility: greater than 7 mile(s):0
Sky conditions: mostly cloudy
Temperature: 73 F (23 C)
Dew Point: 62 F (17 C)
Relative Humidity: 68%
Pressure (altimeter): 30.12 in. Hg (1019 hPa)
ob: MHTG 151900Z 18010KT 9999 BKN028 BKN070 23/17 Q1020 A3012 NOSIG
cycle: 19

Station Type Date Time Source
MHTG TAF 2019/10/15 18:32 UTC NOAA

TAF MHTG 151530Z 1518/1618 22008KT 8000 VCSH SCT028TCU SCT090 TX24/1521Z TN18/1612Z
TEMPO 1522/1602 6000 -TSSHRA SCT026CB SCT030TCU
BECMG 1602/1604 00000KT -RA FEW009 SCT024 BKN070
BECMG 1615/1617 18004KT 9999 NSW SCT026 SCT080

Example: see airport list